地図

経路データ

SID SEASON NUMBER BASIN SUBBASIN NAME ISO_TIME NATURE LAT LON WMO_WIND WMO_PRES WMO_AGENCY TRACK_TYPE DIST2LAND LANDFALL IFLAG USA_AGENCY USA_ATCF_ID USA_LAT USA_LON USA_RECORD USA_STATUS USA_WIND USA_PRES USA_SSHS USA_R34_NE USA_R34_SE USA_R34_SW USA_R34_NW USA_R50_NE USA_R50_SE USA_R50_SW USA_R50_NW USA_R64_NE USA_R64_SE USA_R64_SW USA_R64_NW USA_POCI USA_ROCI USA_RMW USA_EYE TOKYO_LAT TOKYO_LON TOKYO_GRADE TOKYO_WIND TOKYO_PRES TOKYO_R50_DIR TOKYO_R50_LONG TOKYO_R50_SHORT TOKYO_R30_DIR TOKYO_R30_LONG TOKYO_R30_SHORT TOKYO_LAND CMA_LAT CMA_LON CMA_CAT CMA_WIND CMA_PRES HKO_LAT HKO_LON HKO_CAT HKO_WIND HKO_PRES NEWDELHI_LAT NEWDELHI_LON NEWDELHI_GRADE NEWDELHI_WIND NEWDELHI_PRES NEWDELHI_CI NEWDELHI_DP NEWDELHI_POCI REUNION_LAT REUNION_LON REUNION_TYPE REUNION_WIND REUNION_PRES REUNION_TNUM REUNION_CI REUNION_RMW REUNION_R34_NE REUNION_R34_SE REUNION_R34_SW REUNION_R34_NW REUNION_R50_NE REUNION_R50_SE REUNION_R50_SW REUNION_R50_NW REUNION_R64_NE REUNION_R64_SE REUNION_R64_SW REUNION_R64_NW BOM_LAT BOM_LON BOM_TYPE BOM_WIND BOM_PRES BOM_TNUM BOM_CI BOM_RMW BOM_R34_NE BOM_R34_SE BOM_R34_SW BOM_R34_NW BOM_R50_NE BOM_R50_SE BOM_R50_SW BOM_R50_NW BOM_R64_NE BOM_R64_SE BOM_R64_SW BOM_R64_NW BOM_ROCI BOM_POCI BOM_EYE BOM_POS_METHOD BOM_PRES_METHOD NADI_LAT NADI_LON NADI_CAT NADI_WIND NADI_PRES WELLINGTON_LAT WELLINGTON_LON WELLINGTON_WIND WELLINGTON_PRES DS824_LAT DS824_LON DS824_STAGE DS824_WIND DS824_PRES TD9636_LAT TD9636_LON TD9636_STAGE TD9636_WIND TD9636_PRES TD9635_LAT TD9635_LON TD9635_WIND TD9635_PRES TD9635_ROCI NEUMANN_LAT NEUMANN_LON NEUMANN_CLASS NEUMANN_WIND NEUMANN_PRES MLC_LAT MLC_LON MLC_CLASS MLC_WIND MLC_PRES USA_GUST BOM_GUST BOM_GUST_PER REUNION_GUST REUNION_GUST_PER USA_SEAHGT USA_SEARAD_NE USA_SEARAD_SE USA_SEARAD_SW USA_SEARAD_NW STORM_SPEED STORM_DIR
1978190N11254 1978 48 EP MM FICO 1978-07-09 00:00:00 TS 10.8000 -105.900 30 hurdat_epa main 877 877 O________OO___ hurdat_epa EP061978 10.8000 -105.900 TD 30 -1 10.8000 -105.900 TC 30 10.8000 -105.900 1 30 10 274
1978190N11254 1978 48 EP MM FICO 1978-07-09 03:00:00 TS 10.8380 -106.402 main 895 889 P________PP___ EP061978 10.8301 -106.398 TD 27 -1 10.8301 -106.398 TC 27 10.8695 -106.420 1 30 10 276
1978190N11254 1978 48 EP MM FICO 1978-07-09 06:00:00 TS 10.9102 -106.907 25 hurdat_epa main 905 904 O________OP___ hurdat_epa EP061978 10.9000 -106.900 TD 25 -1 10.9000 -106.900 TC 25 10.9508 -106.933 1 30 10 281
1978190N11254 1978 48 EP MM FICO 1978-07-09 09:00:00 TS 11.0393 -107.412 main 918 913 P________PP___ EP061978 11.0350 -107.407 TD 27 -1 11.0350 -107.407 TC 27 11.0567 -107.429 1 30 10 287
1978190N11254 1978 48 EP MM FICO 1978-07-09 12:00:00 TS 11.2000 -107.900 30 hurdat_epa main 924 924 O________OO___ hurdat_epa EP061978 11.2000 -107.900 TD 30 -1 11.2000 -107.900 TC 30 11.2000 -107.900 1 30 10 288
1978190N11254 1978 48 EP MM FICO 1978-07-09 15:00:00 TS 11.3397 -108.366 main 944 934 P________PP___ EP061978 11.3275 -108.373 TD 30 -1 11.3275 -108.373 TC 30 11.3888 -108.341 1 31 9 290
1978190N11254 1978 48 EP MM FICO 1978-07-09 18:00:00 TS 11.5224 -108.790 30 hurdat_epa main 950 943 O________OP___ hurdat_epa EP061978 11.5000 -108.800 TD 30 -1 11.5000 -108.800 TC 30 11.6122 -108.752 1 32 9 301
1978190N11254 1978 48 EP MM FICO 1978-07-09 21:00:00 TS 11.8048 -109.160 main 950 934 P________PP___ EP061978 11.7924 -109.165 TD 32 -1 11.7924 -109.165 TC 32 11.8545 -109.138 1 33 9 310
1978190N11254 1978 48 EP MM FICO 1978-07-10 00:00:00 TS 12.1000 -109.500 35 hurdat_epa main 940 936 O________OO___ hurdat_epa EP061978 12.1000 -109.500 TS 35 0 12.1000 -109.500 TC 35 12.1000 -109.500 2 35 8 307
1978190N11254 1978 48 EP MM FICO 1978-07-10 03:00:00 TS 12.3085 -109.855 main 945 936 P________PP___ EP061978 12.3075 -109.858 TS 40 0 12.3075 -109.858 TC 40 12.3126 -109.847 2 40 8 301
1978190N11254 1978 48 EP MM FICO 1978-07-10 06:00:00 TS 12.5054 -110.195 45 hurdat_epa main 946 942 O________OP___ hurdat_epa EP061978 12.5000 -110.200 TS 45 0 12.5000 -110.200 TC 45 12.5272 -110.173 2 45 8 304
1978190N11254 1978 48 EP MM FICO 1978-07-10 09:00:00 TS 12.7386 -110.504 main 948 938 P________PP___ EP061978 12.7349 -110.508 TS 50 0 12.7349 -110.508 TC 50 12.7532 -110.488 2 50 8 310
1978190N11254 1978 48 EP MM FICO 1978-07-10 12:00:00 TS 13.0000 -110.800 55 hurdat_epa main 944 942 O________OO___ hurdat_epa EP061978 13.0000 -110.800 TS 55 0 13.0000 -110.800 TC 55 13.0000 -110.800 2 55 8 314
1978190N11254 1978 48 EP MM FICO 1978-07-10 15:00:00 TS 13.2953 -111.100 main 942 941 P________PP___ EP061978 13.2924 -111.093 TS 60 0 13.2924 -111.093 TC 60 13.3068 -111.129 2 60 9 316
1978190N11254 1978 48 EP MM FICO 1978-07-10 18:00:00 TS 13.6060 -111.411 65 hurdat_epa main 941 940 O________OP___ hurdat_epa EP061978 13.6000 -111.400 HU 65 1 13.6000 -111.400 TC 65 13.6299 -111.457 2 65 9 315
1978190N11254 1978 48 EP MM FICO 1978-07-10 21:00:00 TS 13.9316 -111.744 main 940 940 P________PP___ EP061978 13.9299 -111.735 HU 70 1 13.9299 -111.735 TC 70 13.9380 -111.782 2 70 9 312
1978190N11254 1978 48 EP MM FICO 1978-07-11 00:00:00 TS 14.2000 -112.100 75 hurdat_epa main 949 949 O________OO___ hurdat_epa EP061978 14.2000 -112.100 HU 75 1 14.2000 -112.100 TC 75 14.2000 -112.100 4 75 8 299
1978190N11254 1978 48 EP MM FICO 1978-07-11 03:00:00 TS 14.3364 -112.502 main 975 975 P________PP___ EP061978 14.3226 -112.523 HU 77 1 14.3226 -112.523 TC 77 14.3915 -112.420 4 81 8 287
1978190N11254 1978 48 EP MM FICO 1978-07-11 06:00:00 TS 14.4265 -112.866 80 hurdat_epa main 998 984 O________OP___ hurdat_epa EP061978 14.4000 -112.900 HU 80 1 14.4000 -112.900 TC 80 14.5324 -112.730 4 87 6 292
1978190N11254 1978 48 EP MM FICO 1978-07-11 09:00:00 TS 14.5783 -113.109 main 984 977 P________PP___ EP061978 14.5649 -113.130 HU 90 2 14.5649 -113.130 TC 90 14.6321 -113.026 4 93 5 303
1978190N11254 1978 48 EP MM FICO 1978-07-11 12:00:00 TS 14.7000 -113.300 100 hurdat_epa main 980 980 O________OO___ hurdat_epa EP061978 14.7000 -113.300 HU 100 3 14.7000 -113.300 TC 100 14.7000 -113.300 4 100 4 291
1978190N11254 1978 48 EP MM FICO 1978-07-11 15:00:00 TS 14.7219 -113.504 main 988 988 P________PP___ EP061978 14.7150 -113.493 HU 107 3 14.7150 -113.493 TC 107 14.7495 -113.551 4 103 4 272
1978190N11254 1978 48 EP MM FICO 1978-07-11 18:00:00 TS 14.7145 -113.716 115 hurdat_epa main 996 996 O________OP___ hurdat_epa EP061978 14.7000 -113.700 HU 115 4 14.7000 -113.700 TC 115 14.7723 -113.780 4 107 4 274
1978190N11254 1978 48 EP MM FICO 1978-07-11 21:00:00 TS 14.7508 -113.959 main 998 998 P________PP___ EP061978 14.7425 -113.950 HU 115 4 14.7425 -113.950 TC 115 14.7839 -113.995 4 111 5 280
1978190N11254 1978 48 EP MM FICO 1978-07-12 00:00:00 TS 14.8000 -114.200 115 hurdat_epa main 1007 1007 O________OO___ hurdat_epa EP061978 14.8000 -114.200 HU 115 4 14.8000 -114.200 TC 115 14.8000 -114.200 4 115 4 283
1978190N11254 1978 48 EP MM FICO 1978-07-12 03:00:00 TS 14.8509 -114.406 main 1007 1007 P________PP___ EP061978 14.8500 -114.408 HU 115 4 14.8500 -114.408 TC 115 14.8549 -114.399 4 116 4 285
1978190N11254 1978 48 EP MM FICO 1978-07-12 06:00:00 TS 14.9030 -114.598 115 hurdat_epa main 1017 1012 O________OP___ hurdat_epa EP061978 14.9000 -114.600 HU 115 4 14.9000 -114.600 TC 115 14.9148 -114.592 4 117 4 287
1978190N11254 1978 48 EP MM FICO 1978-07-12 09:00:00 TS 14.9654 -114.786 main 1017 1017 P________PP___ EP061978 14.9649 -114.785 HU 117 4 14.9649 -114.785 TC 117 14.9674 -114.790 4 118 4 284
1978190N11254 1978 48 EP MM FICO 1978-07-12 12:00:00 TS 15.0000 -115.000 120 hurdat_epa main 1028 1028 O________OO___ hurdat_epa EP061978 15.0000 -115.000 HU 120 4 15.0000 -115.000 TC 120 15.0000 -115.000 4 120 5 270
1978190N11254 1978 48 EP MM FICO 1978-07-12 15:00:00 TS 14.9629 -115.285 main 1044 1044 P________PP___ EP061978 14.9576 -115.300 HU 120 4 14.9576 -115.300 TC 120 14.9843 -115.224 4 118 6 261
1978190N11254 1978 48 EP MM FICO 1978-07-12 18:00:00 TS 14.9100 -115.573 120 hurdat_epa main 1071 1071 O________OP___ hurdat_epa EP061978 14.9000 -115.600 HU 120 4 14.9000 -115.600 TC 120 14.9498 -115.463 4 117 5 261
1978190N11254 1978 48 EP MM FICO 1978-07-12 21:00:00 TS 14.8910 -115.778 main 1082 1082 P________PP___ EP061978 14.8849 -115.793 HU 117 4 14.8849 -115.793 TC 117 14.9155 -115.721 4 116 4 269
1978190N11254 1978 48 EP MM FICO 1978-07-13 00:00:00 TS 14.9000 -116.000 115 hurdat_epa main 1094 1094 O________OO___ hurdat_epa EP061978 14.9000 -116.000 HU 115 4 14.9000 -116.000 TC 115 14.9000 -116.000 4 115 5 275
1978190N11254 1978 48 EP MM FICO 1978-07-13 03:00:00 TS 14.9405 -116.322 main 1113 1110 P________PP___ EP061978 14.9426 -116.335 HU 110 3 14.9426 -116.335 TC 110 14.9321 -116.271 4 112 7 278
1978190N11254 1978 48 EP MM FICO 1978-07-13 06:00:00 TS 14.9969 -116.673 105 hurdat_epa main 1129 1129 O________OP___ hurdat_epa EP061978 15.0000 -116.700 HU 105 3 15.0000 -116.700 TC 105 14.9844 -116.567 4 110 6 281
1978190N11254 1978 48 EP MM FICO 1978-07-13 09:00:00 TS 15.0547 -116.957 main 1140 1140 P________PP___ EP061978 15.0572 -116.970 HU 105 3 15.0572 -116.970 TC 105 15.0445 -116.905 4 107 6 280
1978190N11254 1978 48 EP MM FICO 1978-07-13 12:00:00 TS 15.1000 -117.300 105 hurdat_epa main 1161 1161 O________OO___ hurdat_epa EP061978 15.1000 -117.300 HU 105 3 15.1000 -117.300 TC 105 15.1000 -117.300 4 105 8 274
1978190N11254 1978 48 EP MM FICO 1978-07-13 15:00:00 TS 15.1074 -117.810 main 1196 1196 P________PP___ EP061978 15.1001 -117.820 HU 105 3 15.1001 -117.820 TC 105 15.1364 -117.768 4 102 10 271
1978190N11254 1978 48 EP MM FICO 1978-07-13 18:00:00 TS 15.1130 -118.378 105 hurdat_epa main 1240 1240 O________OP___ hurdat_epa EP061978 15.1000 -118.400 HU 105 3 15.1000 -118.400 TC 105 15.1652 -118.290 4 100 10 273
1978190N11254 1978 48 EP MM FICO 1978-07-13 21:00:00 TS 15.1571 -118.894 main 1270 1270 P________PP___ EP061978 15.1498 -118.907 HU 100 3 15.1498 -118.907 TC 100 15.1864 -118.843 4 97 10 275
1978190N11254 1978 48 EP MM FICO 1978-07-14 00:00:00 TS 15.2000 -119.400 95 hurdat_epa main 1307 1307 O________OO___ hurdat_epa EP061978 15.2000 -119.400 HU 95 2 15.2000 -119.400 TC 95 15.2000 -119.400 4 95 10 273
1978190N11254 1978 48 EP MM FICO 1978-07-14 03:00:00 TS 15.2064 -119.896 main 1338 1338 P________PP___ EP061978 15.2073 -119.893 HU 87 2 15.2073 -119.893 TC 87 15.2025 -119.909 4 97 10 270
1978190N11254 1978 48 EP MM FICO 1978-07-14 06:00:00 TS 15.1998 -120.404 80 hurdat_epa main 1370 1370 O________OP___ hurdat_epa EP061978 15.2000 -120.400 HU 80 1 15.2000 -120.400 TC 80 15.1991 -120.420 4 100 10 270
1978190N11254 1978 48 EP MM FICO 1978-07-14 09:00:00 TS 15.2111 -120.937 main 1404 1404 P________PP___ EP061978 15.2149 -120.935 HU 92 2 15.2149 -120.935 TC 92 15.1962 -120.946 4 102 11 270
1978190N11254 1978 48 EP MM FICO 1978-07-14 12:00:00 TS 15.2000 -121.500 105 hurdat_epa main 1445 1445 O________OO___ hurdat_epa EP061978 15.2000 -121.500 HU 105 3 15.2000 -121.500 TC 105 15.2000 -121.500 4 105 11 265
1978190N11254 1978 48 EP MM FICO 1978-07-14 15:00:00 TS 15.1045 -122.085 main 1497 1497 P________PP___ EP061978 15.0773 -122.085 HU 107 3 15.0773 -122.085 TC 107 15.2134 -122.084 4 107 12 262
1978190N11254 1978 48 EP MM FICO 1978-07-14 18:00:00 TS 15.0469 -122.700 110 hurdat_epa main 1549 1549 O________OP___ hurdat_epa EP061978 15.0000 -122.700 HU 110 3 15.0000 -122.700 TC 110 15.2344 -122.698 4 110 12 272
1978190N11254 1978 48 EP MM FICO 1978-07-14 21:00:00 TS 15.1485 -123.335 main 1586 1586 P________PP___ EP061978 15.1198 -123.335 HU 112 3 15.1198 -123.335 TC 112 15.2632 -123.337 4 112 13 281
1978190N11254 1978 48 EP MM FICO 1978-07-15 00:00:00 TS 15.3000 -124.000 115 hurdat_epa main 1625 1625 O________OO___ hurdat_epa EP061978 15.3000 -124.000 HU 115 4 15.3000 -124.000 TC 115 15.3000 -124.000 4 115 13 281
1978190N11254 1978 48 EP MM FICO 1978-07-15 03:00:00 TS 15.4015 -124.689 main 1674 1674 P________PP___ EP061978 15.4223 -124.692 HU 115 4 15.4223 -124.692 TC 115 15.3180 -124.675 4 115 14 277
1978190N11254 1978 48 EP MM FICO 1978-07-15 06:00:00 TS 15.4694 -125.394 115 hurdat_epa main 1724 1724 O________OP___ hurdat_epa EP061978 15.5000 -125.400 HU 115 4 15.5000 -125.400 TC 115 15.3469 -125.371 4 115 14 273
1978190N11254 1978 48 EP MM FICO 1978-07-15 09:00:00 TS 15.4803 -126.097 main 1780 1780 P________PP___ EP061978 15.4998 -126.100 HU 115 4 15.4998 -126.100 TC 115 15.4023 -126.081 4 115 14 271
1978190N11254 1978 48 EP MM FICO 1978-07-15 12:00:00 TS 15.5000 -126.800 115 hurdat_epa main 1827 1827 O________OO___ hurdat_epa EP061978 15.5000 -126.800 HU 115 4 15.5000 -126.800 TC 115 15.5000 -126.800 4 115 14 274
1978190N11254 1978 48 EP MM FICO 1978-07-15 15:00:00 TS 15.5839 -127.496 main 1867 1867 P________PP___ EP061978 15.5547 -127.493 HU 110 3 15.5547 -127.493 TC 110 15.7008 -127.508 4 113 14 280
1978190N11254 1978 48 EP MM FICO 1978-07-15 18:00:00 TS 15.7473 -128.205 105 hurdat_epa main 1909 1901 O________OP___ hurdat_epa EP061978 15.7000 -128.200 HU 105 3 15.7000 -128.200 TC 105 15.9364 -128.225 4 112 15 288
1978190N11254 1978 48 EP MM FICO 1978-07-15 21:00:00 TS 16.0426 -128.945 main 1937 1937 P________PP___ EP061978 16.0148 -128.942 HU 107 3 16.0148 -128.942 TC 107 16.1538 -128.955 4 111 15 291
1978190N11254 1978 48 EP MM FICO 1978-07-16 00:00:00 TS 16.3000 -129.700 110 hurdat_epa main 1976 1976 O________OO___ hurdat_epa EP061978 16.3000 -129.700 HU 110 3 16.3000 -129.700 TC 110 16.3000 -129.700 4 110 15 282
1978190N11254 1978 48 EP MM FICO 1978-07-16 03:00:00 TS 16.3479 -130.448 main 2031 2031 P________PP___ EP061978 16.3671 -130.443 HU 110 3 16.3671 -130.443 TC 110 16.2711 -130.467 4 111 14 269
1978190N11254 1978 48 EP MM FICO 1978-07-16 06:00:00 TS 16.2744 -131.209 110 hurdat_epa main 2096 2096 O________OP___ hurdat_epa EP061978 16.3000 -131.200 HU 110 3 16.3000 -131.200 TC 110 16.1719 -131.246 4 112 15 262
1978190N11254 1978 48 EP MM FICO 1978-07-16 09:00:00 TS 16.1262 -132.006 main 2176 2176 P________PP___ EP061978 16.1424 -132.001 HU 112 3 16.1424 -132.001 TC 112 16.0617 -132.026 4 113 16 260
1978190N11254 1978 48 EP MM FICO 1978-07-16 12:00:00 TS 16.0000 -132.800 115 hurdat_epa main 2249 2249 O________OO___ hurdat_epa EP061978 16.0000 -132.800 HU 115 4 16.0000 -132.800 TC 115 16.0000 -132.800 4 115 15 266
1978190N11254 1978 48 EP MM FICO 1978-07-16 15:00:00 TS 16.0183 -133.556 main 2277 2202 P________PP___ EP061978 15.9972 -133.557 HU 115 4 15.9972 -133.557 TC 115 16.1031 -133.551 4 115 14 275
1978190N11254 1978 48 EP MM FICO 1978-07-16 18:00:00 TS 16.1312 -134.299 115 hurdat_epa main 2202 2124 O________OP___ hurdat_epa EP061978 16.1000 -134.300 HU 115 4 16.1000 -134.300 TC 115 16.2561 -134.297 4 115 15 282
1978190N11254 1978 48 EP MM FICO 1978-07-16 21:00:00 TS 16.3210 -135.043 main 2124 2036 P________PP___ EP061978 16.2997 -135.042 HU 115 4 16.2997 -135.042 TC 115 16.4062 -135.045 4 115 15 284
1978190N11254 1978 48 EP MM FICO 1978-07-17 00:00:00 TS 16.5000 -135.800 115 hurdat_epa main 2036 1960 O________OO___ hurdat_epa EP061978 16.5000 -135.800 HU 115 4 16.5000 -135.800 TC 115 16.5000 -135.800 4 115 15 280
1978190N11254 1978 48 EP MM FICO 1978-07-17 03:00:00 TS 16.5834 -136.592 main 1950 1877 P________PP___ EP061978 16.6174 -136.600 HU 110 3 16.6174 -136.600 TC 110 16.4475 -136.561 4 108 15 272
1978190N11254 1978 48 EP MM FICO 1978-07-17 06:00:00 TS 16.5472 -137.386 105 hurdat_epa main 1869 1799 O________OP___ hurdat_epa EP061978 16.6000 -137.400 HU 105 3 16.6000 -137.400 TC 105 16.3362 -137.330 4 102 15 260
1978190N11254 1978 48 EP MM FICO 1978-07-17 09:00:00 TS 16.3270 -138.142 main 1802 1725 P________PP___ EP061978 16.3571 -138.151 HU 97 3 16.3571 -138.151 TC 97 16.2068 -138.108 4 96 15 253
1978190N11254 1978 48 EP MM FICO 1978-07-17 12:00:00 TS 16.1000 -138.900 90 hurdat_epa main 1725 1642 O________OO___ hurdat_epa EP061978 16.1000 -138.900 HU 90 2 16.1000 -138.900 TC 90 16.1000 -138.900 4 90 15 260
1978190N11254 1978 48 EP MM FICO 1978-07-17 15:00:00 TS 16.0529 -139.698 main 1642 1560 P________PP___ EP061978 16.0472 -139.685 HU 85 2 16.0472 -139.685 TC 85 16.0756 -139.750 4 87 16 270
1978190N11254 1978 48 EP CP FICO 1978-07-17 18:00:00 TS 16.0956 -140.522 80 hurdat_epa main 1560 1475 O________OP___ hurdat_epa EP061978 16.1000 -140.500 HU 80 1 16.1000 -140.500 TC 80 16.0781 -140.609 4 85 16 275
1978190N11254 1978 48 EP CP FICO 1978-07-17 21:00:00 TS 16.1904 -141.391 main 1465 1380 P________PP___ EP061978 16.2152 -141.380 HU 80 1 16.2152 -141.380 TC 80 16.0914 -141.438 4 82 16 276
1978190N11254 1978 48 EP CP FICO 1978-07-18 00:00:00 TS 16.2619 -142.195 80 hurdat_epa main 1380 1322 O________OO___ hurdat_epa EP061978 16.3000 -142.200 HU 80 1 16.3000 -142.200 TC 80 16.1000 -142.200 4 80 14 270
1978190N11254 1978 48 EP CP FICO 1978-07-18 03:00:00 TS 16.1928 -142.807 main 1322 1275 P________PP___ EP061978 16.2144 -142.830 HU 80 1 16.2144 -142.830 TC 80 16.0763 -142.835 4 80 11 262
1978190N11254 1978 48 EP CP FICO 1978-07-18 06:00:00 TS 16.1039 -143.361 80 hurdat_epa main 1265 1214 O________OP___ hurdat_epa EP061978 16.1000 -143.400 HU 80 1 16.1000 -143.400 TC 80 16.0476 -143.403 4 80 11 265
1978190N11254 1978 48 EP CP FICO 1978-07-18 09:00:00 TS 16.0887 -143.974 main 1204 1144 P________PP___ EP061978 16.0923 -144.035 HU 80 1 16.0923 -144.035 TC 80 16.0203 -143.944 4 80 12 269
1978190N11254 1978 48 EP CP FICO 1978-07-18 12:00:00 TS 16.0833 -144.633 80 hurdat_epa main 1144 1079 O________OO___ hurdat_epa EP061978 16.1000 -144.700 HU 80 1 16.1000 -144.700 TC 80 16.0000 -144.500 4 80 13 268
1978190N11254 1978 48 EP CP FICO 1978-07-18 15:00:00 TS 16.0424 -145.333 main 1079 1010 P________PP___ EP061978 16.0425 -145.408 HU 80 1 16.0425 -145.408 TC 80 15.9923 -145.116 4 78 13 267
1978190N11254 1978 48 EP CP FICO 1978-07-18 18:00:00 TS 16.0153 -146.026 80 hurdat_epa main 1010 952 O________OP___ hurdat_epa EP061978 16.0000 -146.100 HU 80 1 16.0000 -146.100 TC 80 15.9917 -145.755 4 77 13 270
1978190N11254 1978 48 EP CP FICO 1978-07-18 21:00:00 TS 16.0501 -146.651 main 938 889 P________PP___ EP061978 16.0495 -146.692 HU 82 1 16.0495 -146.692 TC 82 15.9953 -146.416 4 76 12 273
1978190N11254 1978 48 EP CP FICO 1978-07-19 00:00:00 TS 16.0833 -147.283 85 hurdat_epa main 880 819 O________OO___ hurdat_epa EP061978 16.1000 -147.300 HU 85 2 16.1000 -147.300 TC 85 16.0000 -147.100 4 75 13 270
1978190N11254 1978 48 EP CP FICO 1978-07-19 03:00:00 TS 16.0468 -148.008 main 819 755 P________PP___ EP061978 16.0577 -148.058 HU 87 2 16.0577 -148.058 TC 87 16.0000 -147.820 4 78 14 267
1978190N11254 1978 48 EP CP FICO 1978-07-19 06:00:00 TS 16.0000 -148.726 90 hurdat_epa main 755 701 O________OP___ hurdat_epa EP061978 16.0000 -148.800 HU 90 2 16.0000 -148.800 TC 90 16.0000 -148.557 4 82 13 268
1978190N11254 1978 48 EP CP FICO 1978-07-19 09:00:00 TS 15.9935 -149.351 main 693 650 P________PP___ EP061978 15.9921 -149.380 HU 90 2 15.9921 -149.380 TC 90 16.0000 -149.292 4 86 12 270
1978190N11254 1978 48 EP CP FICO 1978-07-19 12:00:00 TS 16.0000 -149.933 90 hurdat_epa main 650 600 O________OO___ hurdat_epa EP061978 16.0000 -149.900 HU 90 2 16.0000 -149.900 TC 90 16.0000 -150.000 4 90 11 270
1978190N11254 1978 48 EP CP FICO 1978-07-19 15:00:00 TS 15.9997 -150.512 main 600 553 P________PP___ EP061978 15.9997 -150.428 HU 90 2 15.9997 -150.428 TC 90 15.9997 -150.694 4 90 11 270
1978190N11254 1978 48 EP CP FICO 1978-07-19 18:00:00 TS 16.0000 -151.109 90 hurdat_epa main 553 508 O________OP___ hurdat_epa EP061978 16.0000 -151.000 HU 90 2 16.0000 -151.000 TC 90 15.9998 -151.355 4 90 12 270
1978190N11254 1978 48 EP CP FICO 1978-07-19 21:00:00 TS 16.0001 -151.783 main 501 460 P________PP___ EP061978 16.0002 -151.708 HU 90 2 16.0002 -151.708 TC 90 16.0000 -151.963 4 90 13 270
1978190N11254 1978 48 EP CP FICO 1978-07-20 00:00:00 TS 16.0000 -152.433 90 hurdat_epa main 460 431 O________OO___ hurdat_epa EP061978 16.0000 -152.400 HU 90 2 16.0000 -152.400 TC 90 16.0000 -152.500 4 90 11 270
1978190N11254 1978 48 EP CP FICO 1978-07-20 03:00:00 TS 15.9982 -152.958 main 425 406 P________PP___ EP061978 15.9996 -152.922 HU 92 2 15.9996 -152.922 TC 92 15.9907 -152.935 4 91 10 270
1978190N11254 1978 48 EP CP FICO 1978-07-20 06:00:00 TS 15.9973 -153.434 95 hurdat_epa main 406 376 O________OP___ hurdat_epa EP061978 16.0000 -153.400 HU 95 2 16.0000 -153.400 TC 95 15.9835 -153.303 4 92 9 270
1978190N11254 1978 48 EP CP FICO 1978-07-20 09:00:00 TS 15.9949 -153.936 main 376 352 P________PP___ EP061978 16.0000 -153.950 HU 95 2 16.0000 -153.950 TC 95 15.9846 -153.644 4 93 10 270
1978190N11254 1978 48 EP CP FICO 1978-07-20 12:00:00 TS 16.0000 -154.433 95 hurdat_epa main 352 335 O________OO___ hurdat_epa EP061978 16.0000 -154.500 HU 95 2 16.0000 -154.500 TC 95 16.0000 -154.000 4 95 9 271
1978190N11254 1978 48 EP CP FICO 1978-07-20 15:00:00 TS 16.0071 -154.908 main 335 326 P________PP___ EP061978 15.9848 -155.000 HU 97 3 15.9848 -155.000 TC 97 16.0109 -154.413 4 96 9 272
1978190N11254 1978 48 EP CP FICO 1978-07-20 18:00:00 TS 16.0399 -155.391 100 hurdat_epa main 326 313 O________OP___ hurdat_epa EP061978 16.0000 -155.500 HU 100 3 16.0000 -155.500 TC 100 16.0395 -154.848 4 97 10 276
1978190N11254 1978 48 EP CP FICO 1978-07-20 21:00:00 TS 16.1022 -155.920 main 314 306 P________PP___ EP061978 16.0699 -156.043 HU 100 3 16.0699 -156.043 TC 100 16.0983 -155.310 4 98 10 280
1978190N11254 1978 48 EP CP FICO 1978-07-21 00:00:00 TS 16.2167 -156.467 100 hurdat_epa main 313 306 O________OO___ hurdat_epa EP061978 16.2000 -156.600 HU 100 3 16.2000 -156.600 TC 100 16.2000 -155.800 4 100 11 285
1978190N11254 1978 48 EP CP FICO 1978-07-21 03:00:00 TS 16.3944 -157.022 main 311 311 P________PP___ EP061978 16.3850 -157.172 HU 100 3 16.3850 -157.172 TC 100 16.3488 -156.329 4 100 11 291
1978190N11254 1978 48 EP CP FICO 1978-07-21 06:00:00 TS 16.6067 -157.547 100 hurdat_epa main 320 320 O________OP___ hurdat_epa EP061978 16.6000 -157.700 HU 100 3 16.6000 -157.700 TC 100 16.5401 -156.885 4 100 10 294
1978190N11254 1978 48 EP CP FICO 1978-07-21 09:00:00 TS 16.8038 -158.001 main 338 338 P________PP___ EP061978 16.7923 -158.123 HU 100 3 16.7923 -158.123 TC 100 16.7613 -157.448 4 100 9 296
1978190N11254 1978 48 EP CP FICO 1978-07-21 12:00:00 TS 17.0167 -158.417 100 hurdat_epa main 353 353 O________OO___ hurdat_epa EP061978 17.0000 -158.500 HU 100 3 17.0000 -158.500 TC 100 17.0000 -158.000 4 100 9 299
1978190N11254 1978 48 EP CP FICO 1978-07-21 15:00:00 TS 17.2529 -158.845 main 366 366 P________PP___ EP061978 17.2350 -158.908 HU 100 3 17.2350 -158.908 TC 100 17.2354 -158.535 4 100 9 302
1978190N11254 1978 48 EP CP FICO 1978-07-21 18:00:00 TS 17.5141 -159.259 100 hurdat_epa main 401 396 O________OP___ hurdat_epa EP061978 17.5000 -159.300 HU 100 3 17.5000 -159.300 TC 100 17.4848 -159.053 4 100 9 305
1978190N11254 1978 48 EP CP FICO 1978-07-21 21:00:00 TS 17.7923 -159.642 main 416 409 P________PP___ EP061978 17.7924 -159.650 HU 100 3 17.7924 -159.650 TC 100 17.7418 -159.544 4 100 9 308
1978190N11254 1978 48 EP CP FICO 1978-07-22 00:00:00 TS 18.0833 -160.017 100 hurdat_epa main 409 403 O________OO___ hurdat_epa EP061978 18.1000 -160.000 HU 100 3 18.1000 -160.000 TC 100 18.0000 -160.000 4 100 9 309
1978190N11254 1978 48 EP CP FICO 1978-07-22 03:00:00 TS 18.3779 -160.410 main 403 383 P________PP___ EP061978 18.4075 -160.400 HU 97 3 18.4075 -160.400 TC 97 18.2453 -160.412 4 98 9 308
1978190N11254 1978 48 EP CP FICO 1978-07-22 06:00:00 TS 18.6653 -160.798 95 hurdat_epa main 383 372 O________OP___ hurdat_epa EP061978 18.7000 -160.800 HU 95 2 18.7000 -160.800 TC 95 18.4917 -160.788 4 97 9 308
1978190N11254 1978 48 EP CP FICO 1978-07-22 09:00:00 TS 18.9249 -161.160 main 376 359 P________PP___ EP061978 18.9499 -161.158 HU 95 2 18.9499 -161.158 TC 95 18.7423 -161.146 4 96 9 307
1978190N11254 1978 48 EP CP FICO 1978-07-22 12:00:00 TS 19.1833 -161.517 95 hurdat_epa main 359 351 O________OO___ hurdat_epa EP061978 19.2000 -161.500 HU 95 2 19.2000 -161.500 TC 95 19.0000 -161.500 4 95 9 309
1978190N11254 1978 48 EP CP FICO 1978-07-22 15:00:00 TS 19.4772 -161.893 main 354 351 P________PP___ EP061978 19.5074 -161.850 HU 95 2 19.5074 -161.850 TC 95 19.2759 -161.891 4 95 9 309
1978190N11254 1978 48 EP CP FICO 1978-07-22 18:00:00 TS 19.7596 -162.263 95 hurdat_epa main 357 357 O________OP___ hurdat_epa EP061978 19.8000 -162.200 HU 95 2 19.8000 -162.200 TC 95 19.5575 -162.280 4 95 8 307
1978190N11254 1978 48 EP CP FICO 1978-07-22 21:00:00 TS 19.9807 -162.602 main 366 366 P________PP___ EP061978 19.9998 -162.535 HU 95 2 19.9998 -162.535 TC 95 19.8353 -162.654 4 95 8 304
1978190N11254 1978 48 EP CP FICO 1978-07-23 00:00:00 TS 20.2000 -162.950 95 hurdat_epa main 388 382 O________OO___ hurdat_epa EP061978 20.2000 -162.900 HU 95 2 20.2000 -162.900 TC 95 20.1000 -163.000 4 95 9 306
1978190N11254 1978 48 EP CP FICO 1978-07-23 03:00:00 TS 20.4757 -163.338 main 399 399 P________PP___ EP061978 20.4925 -163.342 HU 95 2 20.4925 -163.342 TC 95 20.3339 -163.240 4 95 9 307
1978190N11254 1978 48 EP CP FICO 1978-07-23 06:00:00 TS 20.7592 -163.744 95 hurdat_epa main 425 425 O________OP___ hurdat_epa EP061978 20.8000 -163.800 HU 95 2 20.8000 -163.800 TC 95 20.5553 -163.462 4 95 9 306
1978190N11254 1978 48 EP CP FICO 1978-07-23 09:00:00 TS 21.0139 -164.134 main 458 458 P________PP___ EP061978 21.0648 -164.200 HU 95 2 21.0648 -164.200 TC 95 20.7741 -163.728 4 95 9 303
1978190N11254 1978 48 EP CP FICO 1978-07-23 12:00:00 TS 21.2500 -164.550 95 hurdat_epa main 491 491 O________OO___ hurdat_epa EP061978 21.3000 -164.600 HU 95 2 21.3000 -164.600 TC 95 21.0000 -164.100 4 95 10 300
1978190N11254 1978 48 EP CP FICO 1978-07-23 15:00:00 TS 21.4891 -165.028 main 539 539 P________PP___ EP061978 21.5224 -165.035 HU 92 2 21.5224 -165.035 TC 92 21.2654 -164.715 4 92 10 295
1978190N11254 1978 48 EP CP FICO 1978-07-23 18:00:00 TS 21.6889 -165.539 90 hurdat_epa main 589 589 O________OP___ hurdat_epa EP061978 21.7000 -165.500 HU 90 2 21.7000 -165.500 TC 90 21.5333 -165.433 4 90 10 289
1978190N11254 1978 48 EP CP FICO 1978-07-23 21:00:00 TS 21.8156 -166.054 main 650 650 P________PP___ EP061978 21.8074 -165.993 HU 87 2 21.8074 -165.993 TC 87 21.7842 -166.159 4 87 10 283
1978190N11254 1978 48 EP CP FICO 1978-07-24 00:00:00 TS 21.9167 -166.567 85 hurdat_epa main 701 701 O________OO___ hurdat_epa EP061978 21.9000 -166.500 HU 85 2 21.9000 -166.500 TC 85 22.0000 -166.800 4 85 10 284
1978190N11254 1978 48 EP CP FICO 1978-07-24 03:00:00 TS 22.0426 -167.056 main 752 752 P________PP___ EP061978 22.0423 -167.000 HU 82 1 22.0423 -167.000 TC 82 22.1588 -167.195 4 83 9 286
1978190N11254 1978 48 EP CP FICO 1978-07-24 06:00:00 TS 22.1808 -167.533 80 hurdat_epa main 793 793 O________OP___ hurdat_epa EP061978 22.2000 -167.500 HU 80 1 22.2000 -167.500 TC 80 22.2846 -167.497 4 82 9 288
1978190N11254 1978 48 EP CP FICO 1978-07-24 09:00:00 TS 22.3297 -168.005 main 844 844 P________PP___ EP061978 22.3500 -168.023 HU 80 1 22.3500 -168.023 TC 80 22.3933 -167.776 4 81 9 290
1978190N11254 1978 48 EP CP FICO 1978-07-24 12:00:00 TS 22.4833 -168.450 80 hurdat_epa main 886 896 O________OO___ hurdat_epa EP061978 22.5000 -168.500 HU 80 1 22.5000 -168.500 TC 80 22.5000 -168.100 4 80 8 291
1978190N11254 1978 48 EP CP FICO 1978-07-24 15:00:00 TS 22.6278 -168.843 main 927 927 P________PP___ EP061978 22.6496 -168.850 HU 82 1 22.6496 -168.850 TC 82 22.6259 -168.600 4 81 8 292
1978190N11254 1978 48 EP CP FICO 1978-07-24 18:00:00 TS 22.7752 -169.242 85 hurdat_epa main 969 969 O________OP___ hurdat_epa EP061978 22.8000 -169.200 HU 85 2 22.8000 -169.200 TC 85 22.7514 -169.150 4 82 9 291
1978190N11254 1978 48 EP CP FICO 1978-07-24 21:00:00 TS 22.9390 -169.736 main 1021 1021 P________PP___ EP061978 22.9502 -169.700 HU 85 2 22.9502 -169.700 TC 85 22.8759 -169.700 4 83 10 290
1978190N11254 1978 48 EP CP FICO 1978-07-25 00:00:00 TS 23.1000 -170.217 85 hurdat_epa main 1074 1074 O________OO___ hurdat_epa EP061978 23.1000 -170.200 HU 85 2 23.1000 -170.200 TC 85 23.0000 -170.200 4 85 8 291
1978190N11254 1978 48 EP CP FICO 1978-07-25 03:00:00 TS 23.2403 -170.585 main 1116 1116 P________PP___ EP061978 23.2497 -170.573 HU 80 1 23.2497 -170.573 TC 80 23.1279 -170.571 4 82 7 293
1978190N11254 1978 48 EP CP FICO 1978-07-25 06:00:00 TS 23.3760 -170.915 75 hurdat_epa main 1148 1148 O________OP___ hurdat_epa EP061978 23.4000 -170.900 HU 75 1 23.4000 -170.900 TC 75 23.2560 -170.888 4 80 7 295
1978190N11254 1978 48 EP CP FICO 1978-07-25 09:00:00 TS 23.5306 -171.266 main 1190 1190 P________PP___ EP061978 23.5649 -171.250 HU 75 1 23.5649 -171.250 TC 75 23.3812 -171.186 4 77 7 294
1978190N11254 1978 48 EP CP FICO 1978-07-25 12:00:00 TS 23.6667 -171.617 75 hurdat_epa main 1223 1223 O________OO___ hurdat_epa EP061978 23.7000 -171.600 HU 75 1 23.7000 -171.600 TC 75 23.5000 -171.500 4 75 7 288
1978190N11254 1978 48 EP CP FICO 1978-07-25 15:00:00 TS 23.7450 -171.971 main 1263 1263 P________PP___ EP061978 23.7574 -171.950 HU 75 1 23.7574 -171.950 TC 75 23.5832 -171.907 4 73 7 283
1978190N11254 1978 48 EP CP FICO 1978-07-25 18:00:00 TS 23.8105 -172.322 75 hurdat_epa main 1295 1295 O________OP___ hurdat_epa EP061978 23.8000 -172.300 HU 75 1 23.8000 -172.300 TC 75 23.6631 -172.331 4 72 7 284
1978190N11254 1978 48 EP CP FICO 1978-07-25 21:00:00 TS 23.9002 -172.672 main 1336 1336 P________PP___ EP061978 23.8849 -172.650 HU 75 1 23.8849 -172.650 TC 75 23.7614 -172.739 4 71 7 288
1978190N11254 1978 48 EP CP FICO 1978-07-26 00:00:00 TS 24.0167 -173.017 75 hurdat_epa main 1368 1368 O________OO___ hurdat_epa EP061978 24.0000 -173.000 HU 75 1 24.0000 -173.000 TC 75 23.9000 -173.100 4 70 7 293
1978190N11254 1978 48 EP CP FICO 1978-07-26 03:00:00 TS 24.1674 -173.354 main 1411 1411 P________PP___ EP061978 24.1350 -173.358 HU 72 1 24.1350 -173.358 TC 72 24.1221 -173.339 4 70 7 299
1978190N11254 1978 48 EP CP FICO 1978-07-26 06:00:00 TS 24.3472 -173.673 70 hurdat_epa main 1442 1442 O________OP___ hurdat_epa EP061978 24.3000 -173.700 HU 70 1 24.3000 -173.700 TC 70 24.3835 -173.536 4 70 7 305
1978190N11254 1978 48 EP CP FICO 1978-07-26 09:00:00 TS 24.5504 -173.950 main 1467 1467 P________PP___ EP061978 24.4998 -174.000 HU 70 1 24.4998 -174.000 TC 70 24.6532 -173.739 4 70 7 308
1978190N11254 1978 48 EP CP FICO 1978-07-26 12:00:00 TS 24.7500 -174.233 70 hurdat_epa main 1500 1500 O________OO___ hurdat_epa EP061978 24.7000 -174.300 HU 70 1 24.7000 -174.300 TC 70 24.9000 -174.000 4 70 7 300
1978190N11254 1978 48 EP CP FICO 1978-07-26 15:00:00 TS 24.8927 -174.591 main 1542 1542 P________PP___ EP061978 24.8426 -174.658 HU 70 1 24.8426 -174.658 TC 70 25.0433 -174.430 4 70 7 294
1978190N11254 1978 48 EP CP FICO 1978-07-26 18:00:00 TS 25.0440 -174.953 70 hurdat_epa main 1584 1584 O________OP___ hurdat_epa EP061978 25.0000 -175.000 HU 70 1 25.0000 -175.000 TC 70 25.1642 -174.916 4 70 7 300
1978190N11254 1978 48 EP CP FICO 1978-07-26 21:00:00 TS 25.2432 -175.259 main 1617 1617 P________PP___ EP061978 25.2198 -175.250 HU 70 1 25.2198 -175.250 TC 70 25.3027 -175.393 4 70 7 310
1978190N11254 1978 48 EP CP FICO 1978-07-27 00:00:00 TS 25.5000 -175.550 70 hurdat_epa main 1652 1652 O________OO___ hurdat_epa EP061978 25.5000 -175.500 HU 70 1 25.5000 -175.500 TC 70 25.5000 -175.800 4 70 8 315
1978190N11254 1978 48 EP CP FICO 1978-07-27 03:00:00 TS 25.8138 -175.883 main 1688 1688 P________PP___ EP061978 25.8277 -175.865 HU 70 1 25.8277 -175.865 TC 70 25.8095 -176.058 4 67 9 320
1978190N11254 1978 48 EP CP FICO 1978-07-27 06:00:00 TS 26.1803 -176.173 70 hurdat_epa main 1727 1727 O________OP___ hurdat_epa EP061978 26.2000 -176.200 HU 70 1 26.2000 -176.200 TC 70 26.1816 -176.241 4 65 9 330
1978190N11254 1978 48 EP CP FICO 1978-07-27 09:00:00 TS 26.5721 -176.364 main 1756 1756 P________PP___ EP061978 26.5774 -176.410 HU 70 1 26.5774 -176.410 TC 70 26.5879 -176.377 4 62 9 342
1978190N11254 1978 48 EP CP FICO 1978-07-27 12:00:00 TS 27.0000 -176.467 70 hurdat_epa main 1776 1776 O________OO___ hurdat_epa EP061978 27.0000 -176.500 HU 70 1 27.0000 -176.500 TC 70 27.0000 -176.500 2 60 9 353
1978190N11254 1978 48 EP CP FICO 1978-07-27 15:00:00 TS 27.4657 -176.478 main 1791 1791 P________PP___ EP061978 27.5149 -176.428 HU 70 1 27.5149 -176.428 TC 70 27.3345 -176.713 2 56 9 357
1978190N11254 1978 48 EP CP FICO 1978-07-27 18:00:00 TS 27.9125 -176.518 70 hurdat_epa main 1804 1804 O________OP___ hurdat_epa EP061978 28.0000 -176.400 HU 70 1 28.0000 -176.400 TC 70 27.6751 -176.910 2 52 8 341
1978190N11254 1978 48 EP CP FICO 1978-07-27 21:00:00 TS 28.2283 -176.771 main 1843 1843 P________PP___ EP061978 28.2703 -176.692 HU 57 0 28.2703 -176.692 TC 57 28.0531 -177.053 2 48 8 327
1978190N11254 1978 48 EP CP FICO 1978-07-28 00:00:00 TS 28.6000 -177.017 45 hurdat_epa main 1876 1876 O________OO___ hurdat_epa EP061978 28.6000 -177.000 TS 45 0 28.6000 -177.000 TC 45 28.5000 -177.100 2 45 10 345
1978190N11254 1978 48 EP CP FICO 1978-07-28 03:00:00 TS 29.2150 -177.067 main 1908 1908 P________PP___ EP061978 29.2548 -177.097 TS 42 0 29.2548 -177.097 TC 42 29.0859 -176.905 2 45 13 1
1978190N11254 1978 48 EP CP FICO 1978-07-28 06:00:00 TS 29.9059 -176.971 40 hurdat_epa main 1928 1924 O________OP___ hurdat_epa EP061978 30.0000 -177.000 TS 40 0 30.0000 -177.000 TC 40 29.7352 -176.627 2 45 14 15
1978190N11254 1978 48 EP CP FICO 1978-07-28 09:00:00 TS 30.5421 -176.663 main 1929 1925 P________PP___ EP061978 30.6528 -176.563 TS 37 0 30.6528 -176.563 TC 37 30.3918 -176.384 2 45 12 18
1978190N11254 1978 48 EP CP FICO 1978-07-28 12:00:00 TS 31.0800 -176.540 35 hurdat_epa main 1942 1942 O________OO___ hurdat_epa EP061978 31.2000 -176.300 TS 35 0 31.2000 -176.300 TC 35 31.0000 -176.300 2 45 10 347
1978190N11254 1978 48 EP CP FICO 1978-07-28 15:00:00 TS 31.4960 -176.913 main 1996 1996 P________PP___ EP061978 31.5812 -176.808 TS 32 -1 31.5964 -176.690 TC 32 31.4763 -176.617 2 43 11 315
1978190N11254 1978 48 EP CP FICO 1978-07-28 18:00:00 TS 31.8660 -177.466 30 hurdat_epa main 2067 2067 O________OP___ hurdat_epa EP061978 31.9000 -177.500 TD 30 -1 31.9000 -177.500 TC 30 31.8980 -177.098 2 42 11 318
1978190N11254 1978 48 EP CP FICO 1978-07-28 21:00:00 NR 32.2801 -177.756 main 2113 2113 P_________P___ EP061978 32.2921 -177.825 TD 35 0 TC 32.2953 -177.605 2 41 10 332
1978190N11254 1978 48 EP CP FICO 1978-07-29 00:00:00 NR 32.7000 -178.000 40 cphc main 2151 2151 O_________O___ cphc 32.7000 -178.000 40 32.7000 -178.000 2 40 9 338
1978190N11254 1978 48 EP CP FICO 1978-07-29 03:00:00 NR 33.1038 -178.146 main 2181 2181 P_________P___ 33.0774 -178.167 40 33.1227 -178.147 2 40 8 350
1978190N11254 1978 48 EP CP FICO 1978-07-29 06:00:00 NR 33.5328 -178.177 40 cphc main 2212 2212 O_________P___ cphc 33.5000 -178.200 40 33.5657 -178.153 2 40 9 6
1978190N11254 1978 48 EP CP FICO 1978-07-29 09:00:00 NR 34.0280 -178.043 main 2220 2151 P_________P___ 34.0050 -178.053 40 34.0509 -178.033 2 40 11 16
1978190N11254 1978 48 EP CP FICO 1978-07-29 12:00:00 NR 34.6000 -177.800 40 cphc main 2151 2082 O_________O___ cphc 34.6000 -177.800 40 34.6000 -177.800 2 40 13 18
1978190N11254 1978 48 EP CP FICO 1978-07-29 15:00:00 NR 35.2541 -177.564 main 2071 1997 P_________P___ 35.2770 -177.609 37 35.2311 -177.519 2 37 14 19
1978190N11254 1978 48 EP CP FICO 1978-07-29 18:00:00 NR 35.9623 -177.215 35 cphc main 1986 1909 O_________P___ cphc 36.0000 -177.300 35 35.9246 -177.129 2 35 16 26
1978190N11254 1978 48 EP CP FICO 1978-07-29 21:00:00 NR 36.6744 -176.697 main 1899 1809 P_________P___ 36.6930 -176.745 32 36.6558 -176.649 2 32 17 32
1978190N11254 1978 48 EP CP FICO 1978-07-30 00:00:00 NR 37.4000 -176.100 30 cphc main 1809 1722 O_________O___ cphc 37.4000 -176.100 30 37.4000 -176.100 1 30 17 32
1978190N11254 1978 48 EP CP FICO 1978-07-30 03:00:00 NR 38.1433 -175.536 main 1720 1634 P_________P___ 38.1492 -175.571 30 38.1374 -175.501 1 30 17 32
1978190N11254 1978 48 EP CP FICO 1978-07-30 06:00:00 NR 38.8828 -174.932 30 cphc main 1621 1533 O_________P___ cphc 38.9000 -175.000 30 38.8655 -174.863 1 30 18 35
1978190N11254 1978 48 EP CP FICO 1978-07-30 09:00:00 NR 39.5999 -174.245 main 1531 1441 P_________P___ 39.6140 -174.296 30 39.5859 -174.193 1 30 18 38
1978190N11254 1978 48 EP CP FICO 1978-07-30 12:00:00 NR 40.3000 -173.500 30 cphc main 1441 O_________O___ cphc 40.3000 -173.500 30 40.3000 -173.500 6 30 18 39

IBTrACS Databaseについて

本データベースは、米国NOAAが公開する1842年以降の世界の熱帯低気圧のベストトラックデータアーカイブInternational Best Track Archive for Climate Stewardship (IBTrACS)を、ウェブで閲覧しやすい形式に変換したものです。

最終更新日:2021-10-21